createdAt,value
2022-12-28T00:00:41.480Z,0
2022-12-28T00:01:41.505Z,0
2022-12-28T00:02:41.498Z,0
2022-12-28T00:03:41.474Z,0
2022-12-28T00:04:41.456Z,0
2022-12-28T00:05:41.457Z,0
2022-12-28T00:06:41.481Z,0
2022-12-28T00:07:41.449Z,0
2022-12-28T00:08:41.448Z,0
2022-12-28T00:09:41.486Z,0
2022-12-28T00:11:06.734Z,0
2022-12-28T00:11:41.489Z,0
2022-12-28T00:12:41.472Z,0
2022-12-28T00:13:41.466Z,0
2022-12-28T00:14:41.460Z,0
2022-12-28T00:15:41.481Z,0
2022-12-28T00:16:41.556Z,0
2022-12-28T00:17:41.453Z,0
2022-12-28T00:18:41.467Z,0
2022-12-28T00:19:41.478Z,0
2022-12-28T00:20:41.461Z,0
2022-12-28T00:21:41.502Z,0
2022-12-28T00:22:41.470Z,0
2022-12-28T00:23:41.459Z,0
2022-12-28T00:24:41.460Z,0
2022-12-28T00:25:41.483Z,0
2022-12-28T00:26:41.469Z,0
2022-12-28T00:27:41.470Z,0
2022-12-28T00:28:41.454Z,0
2022-12-28T00:29:41.452Z,0
2022-12-28T00:30:41.431Z,0
2022-12-28T00:31:41.511Z,0
2022-12-28T00:32:41.439Z,0
2022-12-28T00:33:41.457Z,0
2022-12-28T00:34:41.452Z,0
2022-12-28T00:35:41.448Z,0
2022-12-28T00:37:09.998Z,0
2022-12-28T00:37:41.461Z,0
2022-12-28T00:38:41.454Z,0
2022-12-28T00:39:41.460Z,0
2022-12-28T00:40:41.479Z,0
2022-12-28T00:41:41.481Z,0
2022-12-28T00:42:41.458Z,0
2022-12-28T00:43:41.456Z,0
2022-12-28T00:44:41.475Z,0
2022-12-28T00:45:41.480Z,0
2022-12-28T00:46:41.487Z,0
2022-12-28T00:47:41.452Z,0
2022-12-28T00:48:41.452Z,0
2022-12-28T00:49:41.457Z,0
2022-12-28T00:50:41.452Z,0
2022-12-28T00:51:41.472Z,0
2022-12-28T00:52:41.432Z,0
2022-12-28T00:53:41.443Z,0
2022-12-28T00:54:41.441Z,0
2022-12-28T00:55:41.447Z,0
2022-12-28T00:56:41.463Z,0
2022-12-28T00:57:41.438Z,0
2022-12-28T00:58:41.438Z,0
2022-12-28T00:59:41.431Z,0
2022-12-28T01:00:41.552Z,0
2022-12-28T01:01:41.609Z,0
2022-12-28T01:02:41.524Z,0
2022-12-28T01:03:41.443Z,0
2022-12-28T01:04:41.439Z,0
2022-12-28T01:05:41.440Z,0
2022-12-28T01:06:41.451Z,0
2022-12-28T01:07:41.505Z,0
2022-12-28T01:08:41.448Z,0
2022-12-28T01:09:41.442Z,0
2022-12-28T01:10:41.450Z,0
2022-12-28T01:11:41.460Z,0
2022-12-28T01:12:41.438Z,0
2022-12-28T01:13:41.516Z,0
2022-12-28T01:14:41.436Z,0
2022-12-28T01:15:41.436Z,0
2022-12-28T01:16:41.499Z,0
2022-12-28T01:17:41.446Z,0
2022-12-28T01:18:41.454Z,0
2022-12-28T01:19:41.446Z,0
2022-12-28T01:20:41.459Z,0
2022-12-28T01:21:41.460Z,0
2022-12-28T01:22:41.460Z,0
2022-12-28T01:23:41.456Z,0
2022-12-28T01:24:41.449Z,0
2022-12-28T01:25:41.476Z,0
2022-12-28T01:26:41.467Z,0
2022-12-28T01:27:41.457Z,0
2022-12-28T01:28:41.462Z,0
2022-12-28T01:29:41.463Z,0
2022-12-28T01:30:41.439Z,0
2022-12-28T01:31:41.571Z,0
2022-12-28T01:32:41.453Z,0
2022-12-28T01:33:41.448Z,0
2022-12-28T01:34:41.454Z,0
2022-12-28T01:35:41.456Z,0
2022-12-28T01:36:41.488Z,0
2022-12-28T01:37:41.462Z,0
2022-12-28T01:38:41.472Z,0
2022-12-28T01:39:41.457Z,0
2022-12-28T01:40:41.466Z,0
2022-12-28T01:41:41.478Z,0
2022-12-28T01:42:41.471Z,0
2022-12-28T01:43:41.454Z,0
2022-12-28T01:44:41.460Z,0
2022-12-28T01:45:41.461Z,0
2022-12-28T01:46:41.462Z,0
2022-12-28T01:47:41.458Z,0
2022-12-28T01:48:41.465Z,0
2022-12-28T01:49:41.463Z,0
2022-12-28T01:50:41.458Z,0
2022-12-28T01:51:41.475Z,0
2022-12-28T01:52:41.463Z,0
2022-12-28T01:53:41.447Z,0
2022-12-28T01:54:41.450Z,0
2022-12-28T01:55:41.469Z,0
2022-12-28T01:56:41.478Z,0
2022-12-28T01:57:41.457Z,0
2022-12-28T01:58:41.449Z,0
2022-12-28T01:59:41.455Z,0
2022-12-28T02:00:41.440Z,0
2022-12-28T02:01:41.695Z,0
2022-12-28T02:02:41.637Z,0
2022-12-28T02:03:41.455Z,0
2022-12-28T02:04:41.490Z,0
2022-12-28T02:05:41.437Z,0
2022-12-28T02:06:41.471Z,0
2022-12-28T02:07:41.430Z,0
2022-12-28T02:08:41.432Z,0
2022-12-28T02:09:41.459Z,0
2022-12-28T02:10:45.704Z,0
2022-12-28T02:11:41.476Z,0
2022-12-28T02:12:41.475Z,0
2022-12-28T02:13:41.430Z,0
2022-12-28T02:14:41.438Z,0
2022-12-28T02:15:41.438Z,0
2022-12-28T02:16:41.489Z,0
2022-12-28T02:17:41.448Z,0
2022-12-28T02:18:41.432Z,0
2022-12-28T02:19:41.441Z,0
2022-12-28T02:20:41.429Z,0
2022-12-28T02:21:41.453Z,0
2022-12-28T02:22:41.440Z,0
2022-12-28T02:23:41.443Z,0
2022-12-28T02:24:41.433Z,0
2022-12-28T02:25:41.449Z,0
2022-12-28T02:26:41.465Z,0
2022-12-28T02:27:41.430Z,0
2022-12-28T02:28:41.440Z,0
2022-12-28T02:29:41.437Z,0
2022-12-28T02:30:41.554Z,0
2022-12-28T02:31:41.456Z,0
2022-12-28T02:32:41.468Z,0
2022-12-28T02:33:41.449Z,0
2022-12-28T02:34:41.456Z,0
2022-12-28T02:35:41.451Z,0
2022-12-28T02:36:41.470Z,0
2022-12-28T02:37:41.455Z,0
2022-12-28T02:38:41.447Z,0
2022-12-28T02:39:41.444Z,0
2022-12-28T02:40:41.484Z,0
2022-12-28T02:41:41.460Z,0
2022-12-28T02:42:41.452Z,0
2022-12-28T02:43:41.453Z,0
2022-12-28T02:44:41.447Z,0
2022-12-28T02:45:41.480Z,0
2022-12-28T02:46:41.481Z,0
2022-12-28T02:47:41.444Z,0
2022-12-28T02:48:41.456Z,0
2022-12-28T02:49:41.449Z,0
2022-12-28T02:50:41.446Z,0
2022-12-28T02:51:41.616Z,0
2022-12-28T02:52:41.462Z,0
2022-12-28T02:53:41.466Z,0
2022-12-28T02:54:41.455Z,0
2022-12-28T02:55:41.475Z,0
2022-12-28T02:56:41.475Z,0
2022-12-28T02:57:41.541Z,0
2022-12-28T02:58:41.451Z,0
2022-12-28T02:59:41.450Z,0
2022-12-28T03:00:41.431Z,0
2022-12-28T03:01:41.608Z,0
2022-12-28T03:02:41.581Z,0
2022-12-28T03:03:41.445Z,0
2022-12-28T03:04:41.454Z,0
2022-12-28T03:05:41.462Z,0
2022-12-28T03:06:41.468Z,0
2022-12-28T03:07:41.451Z,0
2022-12-28T03:08:41.454Z,0
2022-12-28T03:09:41.450Z,0
2022-12-28T03:10:41.477Z,0
2022-12-28T03:11:41.482Z,0
2022-12-28T03:12:41.460Z,0
2022-12-28T03:13:41.447Z,0
2022-12-28T03:14:41.448Z,0
2022-12-28T03:15:41.496Z,0
2022-12-28T03:16:41.463Z,0
2022-12-28T03:17:41.455Z,0
2022-12-28T03:18:41.454Z,0
2022-12-28T03:19:41.442Z,0
2022-12-28T03:20:41.438Z,0
2022-12-28T03:21:41.455Z,0
2022-12-28T03:22:41.442Z,0
2022-12-28T03:23:41.455Z,0
2022-12-28T03:24:41.429Z,0
2022-12-28T03:25:41.458Z,0
2022-12-28T03:26:41.457Z,0
2022-12-28T03:27:41.455Z,0
2022-12-28T03:28:41.431Z,0
2022-12-28T03:29:41.444Z,0
2022-12-28T03:30:41.462Z,0
2022-12-28T03:31:41.451Z,0
2022-12-28T03:32:41.428Z,0
2022-12-28T03:33:41.439Z,0
2022-12-28T03:34:41.427Z,0
2022-12-28T03:35:41.426Z,0
2022-12-28T03:36:41.464Z,0
2022-12-28T03:37:41.441Z,0
2022-12-28T03:38:41.427Z,0
2022-12-28T03:39:41.432Z,0
2022-12-28T03:40:41.447Z,0
2022-12-28T03:41:41.463Z,0
2022-12-28T03:42:41.442Z,0
2022-12-28T03:43:41.439Z,0
2022-12-28T03:44:41.429Z,0
2022-12-28T03:45:46.340Z,0
2022-12-28T03:46:41.475Z,0
2022-12-28T03:47:41.448Z,0
2022-12-28T03:48:41.452Z,0
2022-12-28T03:49:41.449Z,0
2022-12-28T03:50:41.458Z,0
2022-12-28T03:51:41.469Z,0
2022-12-28T03:52:41.451Z,0
2022-12-28T03:53:41.466Z,0
2022-12-28T03:54:41.463Z,0
2022-12-28T03:55:41.464Z,0
2022-12-28T03:56:41.460Z,0
2022-12-28T03:57:41.448Z,0
2022-12-28T03:58:41.446Z,0
2022-12-28T03:59:41.461Z,0
2022-12-28T04:00:41.444Z,0
2022-12-28T04:01:41.552Z,0
2022-12-28T04:02:41.631Z,0
2022-12-28T04:03:41.455Z,0
2022-12-28T04:04:41.452Z,0
2022-12-28T04:05:41.455Z,0
2022-12-28T04:06:41.471Z,0
2022-12-28T04:07:41.455Z,0
2022-12-28T04:08:41.453Z,0
2022-12-28T04:09:41.456Z,0
2022-12-28T04:10:41.473Z,0
2022-12-28T04:11:41.467Z,0
2022-12-28T04:12:41.460Z,0
2022-12-28T04:13:41.455Z,0
2022-12-28T04:14:41.462Z,0
2022-12-28T04:15:41.473Z,0
2022-12-28T04:16:41.470Z,0
2022-12-28T04:17:41.465Z,0
2022-12-28T04:18:41.461Z,0
2022-12-28T04:19:41.446Z,0
2022-12-28T04:20:41.454Z,0
2022-12-28T04:21:41.477Z,0
2022-12-28T04:22:41.450Z,0
2022-12-28T04:23:41.469Z,0
2022-12-28T04:24:41.463Z,0
2022-12-28T04:25:41.490Z,0
2022-12-28T04:26:41.461Z,0
2022-12-28T04:27:41.461Z,0
2022-12-28T04:28:41.450Z,0
2022-12-28T04:29:41.444Z,0
2022-12-28T04:30:41.436Z,0
2022-12-28T04:31:41.520Z,0
2022-12-28T04:32:41.461Z,0
2022-12-28T04:33:41.459Z,0
2022-12-28T04:34:48.012Z,0
2022-12-28T04:35:41.453Z,0
2022-12-28T04:36:41.461Z,0
2022-12-28T04:37:41.436Z,0
2022-12-28T04:38:41.438Z,0
2022-12-28T04:39:55.298Z,0
2022-12-28T04:40:41.447Z,0
2022-12-28T04:41:41.457Z,0
2022-12-28T04:42:41.448Z,0
2022-12-28T04:43:41.463Z,0
2022-12-28T04:44:41.441Z,0
2022-12-28T04:45:41.447Z,0
2022-12-28T04:46:41.533Z,0
2022-12-28T04:47:41.443Z,0
2022-12-28T04:48:41.434Z,0
2022-12-28T04:49:41.435Z,0
2022-12-28T04:50:41.434Z,0
2022-12-28T04:51:41.455Z,0
2022-12-28T04:52:41.430Z,0
2022-12-28T04:53:41.451Z,0
2022-12-28T04:54:41.442Z,0
2022-12-28T04:55:41.451Z,0
2022-12-28T04:56:41.456Z,0
2022-12-28T04:57:41.436Z,0
2022-12-28T04:58:41.441Z,0
2022-12-28T04:59:41.442Z,0
2022-12-28T05:00:41.497Z,0
2022-12-28T05:01:41.669Z,0
2022-12-28T05:02:45.342Z,0
2022-12-28T05:03:41.476Z,0
2022-12-28T05:04:41.467Z,0
2022-12-28T05:05:41.458Z,0
2022-12-28T05:06:41.480Z,0
2022-12-28T05:07:41.453Z,0
2022-12-28T05:08:41.452Z,0
2022-12-28T05:09:41.454Z,0
2022-12-28T05:10:41.446Z,0
2022-12-28T05:11:41.467Z,0
2022-12-28T05:12:41.449Z,0
2022-12-28T05:13:41.460Z,0
2022-12-28T05:14:41.453Z,0
2022-12-28T05:15:41.452Z,0
2022-12-28T05:16:41.503Z,0
2022-12-28T05:17:41.461Z,0
2022-12-28T05:18:41.447Z,0
2022-12-28T05:19:41.450Z,0
2022-12-28T05:20:41.434Z,0
2022-12-28T05:21:41.469Z,0
2022-12-28T05:22:41.445Z,0
2022-12-28T05:23:41.460Z,0
2022-12-28T05:24:41.455Z,0
2022-12-28T05:25:41.470Z,0
2022-12-28T05:26:41.472Z,0
2022-12-28T05:27:41.455Z,0
2022-12-28T05:28:41.459Z,0
2022-12-28T05:29:41.454Z,0
2022-12-28T05:30:41.430Z,0
2022-12-28T05:31:41.564Z,0
2022-12-28T05:32:41.450Z,0
2022-12-28T05:33:41.453Z,0
2022-12-28T05:34:41.453Z,0
2022-12-28T05:35:41.452Z,0
2022-12-28T05:36:41.466Z,0
2022-12-28T05:37:41.458Z,0
2022-12-28T05:38:41.461Z,0
2022-12-28T05:39:41.446Z,0
2022-12-28T05:40:41.461Z,0
2022-12-28T05:41:41.463Z,0
2022-12-28T05:42:46.495Z,0
2022-12-28T05:43:41.451Z,0
2022-12-28T05:44:41.449Z,0
2022-12-28T05:45:41.464Z,0
2022-12-28T05:46:41.493Z,0
2022-12-28T05:47:41.456Z,0
2022-12-28T05:48:41.474Z,0
2022-12-28T05:49:41.455Z,0
2022-12-28T05:50:41.529Z,0
2022-12-28T05:51:41.445Z,0
2022-12-28T05:52:41.431Z,0
2022-12-28T05:53:41.453Z,0
2022-12-28T05:54:41.442Z,0
2022-12-28T05:55:41.563Z,0
2022-12-28T05:56:41.466Z,0
2022-12-28T05:57:41.444Z,0
2022-12-28T05:58:41.451Z,0
2022-12-28T05:59:41.436Z,0
2022-12-28T06:00:41.435Z,0
2022-12-28T06:01:41.634Z,0
2022-12-28T06:02:41.527Z,0
2022-12-28T06:03:41.487Z,0
2022-12-28T06:04:41.445Z,0
2022-12-28T06:05:41.441Z,0
2022-12-28T06:06:41.453Z,0
2022-12-28T06:07:41.457Z,0
2022-12-28T06:08:41.454Z,0
2022-12-28T06:09:41.435Z,0
2022-12-28T06:10:41.452Z,0
2022-12-28T06:11:41.452Z,0
2022-12-28T06:12:41.435Z,0
2022-12-28T06:13:41.441Z,0
2022-12-28T06:14:41.455Z,0
2022-12-28T06:15:41.460Z,0
2022-12-28T06:16:41.520Z,0
2022-12-28T06:17:41.452Z,0
2022-12-28T06:18:41.544Z,0
2022-12-28T06:19:41.449Z,0
2022-12-28T06:20:41.435Z,0
2022-12-28T06:21:41.465Z,0
2022-12-28T06:22:41.448Z,0
2022-12-28T06:23:41.457Z,0
2022-12-28T06:24:41.443Z,0
2022-12-28T06:25:41.467Z,0
2022-12-28T06:26:41.486Z,0
2022-12-28T06:27:41.441Z,0
2022-12-28T06:28:41.456Z,0
2022-12-28T06:29:41.457Z,0
2022-12-28T06:30:41.432Z,0
2022-12-28T06:31:41.519Z,0
2022-12-28T06:32:41.452Z,0
2022-12-28T06:33:41.451Z,0
2022-12-28T06:34:41.448Z,1
2022-12-28T06:35:41.456Z,1
2022-12-28T06:36:41.461Z,3
2022-12-28T06:37:41.454Z,5
2022-12-28T06:38:41.479Z,5
2022-12-28T06:39:41.450Z,7
2022-12-28T06:41:11.596Z,7
2022-12-28T06:41:41.572Z,11
2022-12-28T06:42:41.448Z,14
2022-12-28T06:43:41.451Z,18
2022-12-28T06:44:44.720Z,20
2022-12-28T06:45:41.482Z,25
2022-12-28T06:46:41.516Z,29
2022-12-28T06:47:41.450Z,35
2022-12-28T06:48:41.438Z,40
2022-12-28T06:49:41.456Z,46
2022-12-28T06:50:41.437Z,46
2022-12-28T06:51:41.499Z,62
2022-12-28T06:52:41.445Z,71
2022-12-28T06:53:41.450Z,82
2022-12-28T06:54:41.464Z,92
2022-12-28T06:55:41.461Z,101
2022-12-28T06:56:41.464Z,112
2022-12-28T06:57:41.463Z,123
2022-12-28T06:58:41.454Z,134
2022-12-28T06:59:41.506Z,147
2022-12-28T07:00:41.436Z,147
2022-12-28T07:01:41.632Z,160
2022-12-28T07:02:41.507Z,175
2022-12-28T07:03:41.442Z,175
2022-12-28T07:04:41.534Z,206
2022-12-28T07:05:41.450Z,223
2022-12-28T07:06:41.502Z,239
2022-12-28T07:07:41.427Z,258
2022-12-28T07:08:41.443Z,276
2022-12-28T07:09:41.438Z,296
2022-12-28T07:10:41.455Z,318
2022-12-28T07:11:41.463Z,340
2022-12-28T07:12:41.428Z,366
2022-12-28T07:13:41.444Z,425
2022-12-28T07:14:41.436Z,455
2022-12-28T07:15:41.432Z,486
2022-12-28T07:16:41.455Z,521
2022-12-28T07:17:41.432Z,552
2022-12-28T07:18:41.441Z,584
2022-12-28T07:19:41.435Z,621
2022-12-28T07:20:41.426Z,621
2022-12-28T07:21:41.452Z,693
2022-12-28T07:22:41.442Z,728
2022-12-28T07:23:41.439Z,761
2022-12-28T07:24:41.438Z,799
2022-12-28T07:25:41.478Z,838
2022-12-28T07:26:41.455Z,879
2022-12-28T07:27:41.465Z,917
2022-12-28T07:28:41.444Z,965
2022-12-28T07:29:41.482Z,1011
2022-12-28T07:30:41.516Z,1011
2022-12-28T07:31:44.630Z,1115
2022-12-28T07:32:41.451Z,1163
2022-12-28T07:33:41.457Z,1212
2022-12-28T07:34:41.472Z,1266
2022-12-28T07:35:41.467Z,1310
2022-12-28T07:36:41.465Z,1356
2022-12-28T07:37:41.464Z,1413
2022-12-28T07:38:41.464Z,1456
2022-12-28T07:39:41.470Z,1504
2022-12-28T07:40:41.446Z,1504
2022-12-28T07:41:41.460Z,1618
2022-12-28T07:42:41.461Z,1690
2022-12-28T07:43:41.462Z,1752
2022-12-28T07:44:45.495Z,1835
2022-12-28T07:45:41.487Z,1940
2022-12-28T07:46:41.479Z,2055
2022-12-28T07:47:41.455Z,2145
2022-12-28T07:48:41.453Z,2211
2022-12-28T07:49:41.446Z,2283
2022-12-28T07:50:41.529Z,2283
2022-12-28T07:51:41.469Z,2492
2022-12-28T07:52:41.444Z,2665
2022-12-28T07:53:41.451Z,2833
2022-12-28T07:54:41.460Z,3050
2022-12-28T07:55:41.465Z,3275
2022-12-28T07:57:41.460Z,3636
2022-12-28T07:59:41.449Z,3997
2022-12-28T08:00:41.442Z,3997
2022-12-28T08:01:41.532Z,4101
2022-12-28T08:02:41.452Z,4101
2022-12-28T08:03:41.504Z,4119
2022-12-28T08:04:41.440Z,4158
2022-12-28T08:05:41.457Z,4191
2022-12-28T08:06:41.471Z,4510
2022-12-28T08:07:41.459Z,5802
2022-12-28T08:08:41.459Z,7092
2022-12-28T08:09:41.449Z,7826
2022-12-28T08:10:41.465Z,9155
2022-12-28T08:11:41.465Z,9155
2022-12-28T08:12:41.428Z,9337
2022-12-28T08:13:41.524Z,9110
2022-12-28T08:14:41.434Z,8458
2022-12-28T08:15:41.467Z,6169
2022-12-28T08:16:41.451Z,6307
2022-12-28T08:17:41.438Z,5048
2022-12-28T08:18:41.430Z,2593
2022-12-28T08:19:41.438Z,2241
2022-12-28T08:20:41.428Z,2075
2022-12-28T08:21:41.461Z,1996
2022-12-28T08:22:41.432Z,1927
2022-12-28T08:23:41.432Z,1874
2022-12-28T08:24:41.434Z,1787
2022-12-28T08:25:41.452Z,1688
2022-12-28T08:26:41.456Z,1701
2022-12-28T08:27:41.438Z,1725
2022-12-28T08:28:41.433Z,1706
2022-12-28T08:29:41.428Z,1681
2022-12-28T08:30:41.540Z,1681
2022-12-28T08:31:41.447Z,1723
2022-12-28T08:32:41.435Z,1793
2022-12-28T08:33:41.433Z,1826
2022-12-28T08:34:41.432Z,1821
2022-12-28T08:35:41.440Z,1754
2022-12-28T08:36:41.537Z,1660
2022-12-28T08:37:41.434Z,1575
2022-12-28T08:38:41.448Z,1531
2022-12-28T08:39:41.451Z,1491
2022-12-28T08:40:41.452Z,1491
2022-12-28T08:41:41.466Z,1443
2022-12-28T08:42:41.452Z,1465
2022-12-28T08:43:41.474Z,1542
2022-12-28T08:44:41.447Z,1627
2022-12-28T08:45:41.507Z,1714
2022-12-28T08:46:41.675Z,1876
2022-12-28T08:47:41.452Z,2097
2022-12-28T08:48:41.479Z,2296
2022-12-28T08:49:41.455Z,2420
2022-12-28T08:50:41.429Z,2420
2022-12-28T08:51:41.655Z,2451
2022-12-28T08:52:41.564Z,2309
2022-12-28T08:53:41.455Z,2149
2022-12-28T08:54:41.445Z,2082
2022-12-28T08:55:41.471Z,2110
2022-12-28T08:56:41.481Z,2187
2022-12-28T08:57:41.437Z,2348
2022-12-28T08:58:41.469Z,2574
2022-12-28T08:59:41.531Z,2700
2022-12-28T09:00:41.439Z,2700
2022-12-28T09:01:44.566Z,2737
2022-12-28T09:02:41.623Z,2737
2022-12-28T09:03:41.533Z,3135
2022-12-28T09:04:41.448Z,3491
2022-12-28T09:05:41.454Z,3970
2022-12-28T09:06:41.466Z,4558
2022-12-28T09:07:41.446Z,5151
2022-12-28T09:08:42.565Z,5632
2022-12-28T09:09:41.472Z,6010
2022-12-28T09:10:41.447Z,6010
2022-12-28T09:11:41.466Z,6150
2022-12-28T09:12:41.436Z,6080
2022-12-28T09:13:41.501Z,5863
2022-12-28T09:14:41.438Z,5511
2022-12-28T09:15:41.605Z,5083
2022-12-28T09:16:41.461Z,4871
2022-12-28T09:17:41.448Z,4657
2022-12-28T09:18:41.450Z,4655
2022-12-28T09:19:41.454Z,4956
2022-12-28T09:20:47.567Z,5337
2022-12-28T09:21:41.488Z,5883
2022-12-28T09:22:41.543Z,6462
2022-12-28T09:23:41.445Z,6864
2022-12-28T09:24:41.461Z,7122
2022-12-28T09:25:41.524Z,7151
2022-12-28T09:26:41.467Z,6897
2022-12-28T09:27:41.447Z,6897
2022-12-28T09:28:41.466Z,6320
2022-12-28T09:29:41.430Z,5949
2022-12-28T09:30:41.435Z,5730
2022-12-28T09:31:41.580Z,5848
2022-12-28T09:32:41.427Z,6324
2022-12-28T09:34:13.986Z,6948
2022-12-28T09:34:41.464Z,7415
2022-12-28T09:35:41.441Z,7815
2022-12-28T09:36:41.447Z,8250
2022-12-28T09:37:41.427Z,8454
2022-12-28T09:38:41.447Z,8600
2022-12-28T09:39:41.439Z,8865
2022-12-28T09:40:41.460Z,8329
2022-12-28T09:41:41.455Z,7888
2022-12-28T09:42:41.433Z,7557
2022-12-28T09:43:41.458Z,8045
2022-12-28T09:44:41.448Z,8998
2022-12-28T09:45:41.502Z,8609
2022-12-28T09:46:46.676Z,8898
2022-12-28T09:47:41.558Z,9455
2022-12-28T09:48:41.434Z,9645
2022-12-28T09:49:41.440Z,10008
2022-12-28T09:50:41.428Z,10008
2022-12-28T09:51:41.449Z,9848
2022-12-28T09:52:47.827Z,8932
2022-12-28T09:53:41.438Z,7684
2022-12-28T09:54:41.444Z,7669
2022-12-28T09:55:41.496Z,7614
2022-12-28T09:56:41.468Z,6948
2022-12-28T09:57:41.446Z,6548
2022-12-28T09:58:45.194Z,8408
2022-12-28T09:59:41.446Z,12264
2022-12-28T10:00:41.443Z,12264
2022-12-28T10:01:41.513Z,14282
2022-12-28T10:02:41.554Z,14282
2022-12-28T10:03:41.459Z,11955
2022-12-28T10:04:47.269Z,9002
2022-12-28T10:05:41.451Z,10126
2022-12-28T10:06:41.459Z,10454
2022-12-28T10:07:41.452Z,11693
2022-12-28T10:08:41.508Z,11626
2022-12-28T10:09:41.440Z,14177
2022-12-28T10:10:45.264Z,14177
2022-12-28T10:11:41.458Z,14203
2022-12-28T10:12:41.451Z,14393
2022-12-28T10:14:41.446Z,14282
2022-12-28T10:15:41.479Z,14544
2022-12-28T10:16:46.934Z,15575
2022-12-28T10:17:41.451Z,14144
2022-12-28T10:18:41.450Z,12861
2022-12-28T10:19:41.447Z,15998
2022-12-28T10:20:41.431Z,15998
2022-12-28T10:21:41.457Z,16520
2022-12-28T10:22:46.343Z,16815
2022-12-28T10:24:04.637Z,16751
2022-12-28T10:24:41.449Z,17342
2022-12-28T10:25:41.469Z,17215
2022-12-28T10:26:41.473Z,15939
2022-12-28T10:27:41.450Z,15855
2022-12-28T10:28:47.103Z,16668
2022-12-28T10:29:41.452Z,16212
2022-12-28T10:30:41.446Z,16212
2022-12-28T10:31:41.595Z,16054
2022-12-28T10:32:41.448Z,15923
2022-12-28T10:33:41.452Z,15565
2022-12-28T10:34:41.446Z,16100
2022-12-28T10:35:41.463Z,13908
2022-12-28T10:36:41.466Z,9337
2022-12-28T10:37:41.454Z,7306
2022-12-28T10:38:41.442Z,7024
2022-12-28T10:39:41.454Z,7118
2022-12-28T10:40:41.468Z,7118
2022-12-28T10:41:41.468Z,5787
2022-12-28T10:42:41.461Z,5787
2022-12-28T10:43:41.431Z,5356
2022-12-28T10:44:41.698Z,5118
2022-12-28T10:45:41.433Z,5113
2022-12-28T10:46:41.506Z,5289
2022-12-28T10:47:41.426Z,6648
2022-12-28T10:48:41.429Z,7890
2022-12-28T10:49:43.921Z,6913
2022-12-28T10:50:41.433Z,10898
2022-12-28T10:51:41.452Z,6272
2022-12-28T10:52:41.441Z,6340
2022-12-28T10:53:41.436Z,6198
2022-12-28T10:54:41.502Z,6174
2022-12-28T10:55:41.455Z,6443
2022-12-28T10:56:41.505Z,6073
2022-12-28T10:58:10.562Z,7017
2022-12-28T10:58:41.433Z,7063
2022-12-28T10:59:41.440Z,8747
2022-12-28T11:00:42.903Z,8757
2022-12-28T11:01:41.704Z,8384
2022-12-28T11:02:41.536Z,8062
2022-12-28T11:03:41.430Z,8062
2022-12-28T11:04:41.429Z,9562
2022-12-28T11:05:41.432Z,10379
2022-12-28T11:06:41.506Z,8292
2022-12-28T11:07:41.518Z,9800
2022-12-28T11:08:41.438Z,11151
2022-12-28T11:09:41.436Z,10093
2022-12-28T11:10:41.455Z,10093
2022-12-28T11:11:41.567Z,12321
2022-12-28T11:12:41.446Z,13018
2022-12-28T11:13:41.429Z,12380
2022-12-28T11:14:41.451Z,11540
2022-12-28T11:15:41.449Z,10760
2022-12-28T11:16:41.530Z,11396
2022-12-28T11:17:41.504Z,12408
2022-12-28T11:18:41.451Z,13551
2022-12-28T11:19:41.457Z,8451
2022-12-28T11:20:41.438Z,8451
2022-12-28T11:21:41.461Z,12397
2022-12-28T11:22:41.467Z,13228
2022-12-28T11:23:41.447Z,13503
2022-12-28T11:24:41.461Z,12944
2022-12-28T11:25:41.468Z,12141
2022-12-28T11:26:41.466Z,12452
2022-12-28T11:27:41.841Z,12426
2022-12-28T11:28:41.466Z,12349
2022-12-28T11:29:41.456Z,12428
2022-12-28T11:30:41.437Z,12238
2022-12-28T11:31:41.487Z,11543
2022-12-28T11:32:41.455Z,10858
2022-12-28T11:33:41.441Z,9236
2022-12-28T11:34:41.697Z,9562
2022-12-28T11:35:41.449Z,8036
2022-12-28T11:36:41.492Z,9544
2022-12-28T11:37:41.444Z,11892
2022-12-28T11:38:41.450Z,12183
2022-12-28T11:39:41.456Z,11315
2022-12-28T11:40:41.589Z,11315
2022-12-28T11:41:50.971Z,9862
2022-12-28T11:42:41.757Z,10141
2022-12-28T11:43:41.447Z,8663
2022-12-28T11:44:41.458Z,8725
2022-12-28T11:45:41.510Z,10998
2022-12-28T11:46:41.463Z,11555
2022-12-28T11:47:41.454Z,11698
2022-12-28T11:48:41.456Z,12749
2022-12-28T11:49:41.457Z,10793
2022-12-28T11:50:41.425Z,10793
2022-12-28T11:51:41.466Z,9999
2022-12-28T11:52:41.433Z,9999
2022-12-28T11:53:41.444Z,9280
2022-12-28T11:54:41.468Z,9216
2022-12-28T11:55:41.486Z,9394
2022-12-28T11:56:41.451Z,9540
2022-12-28T11:57:41.454Z,8532
2022-12-28T11:58:41.452Z,9389
2022-12-28T11:59:41.433Z,9389
2022-12-28T12:00:41.427Z,8677
2022-12-28T12:01:41.543Z,8312
2022-12-28T12:02:41.688Z,8845
2022-12-28T12:03:41.450Z,8845
2022-12-28T12:04:51.776Z,6646
2022-12-28T12:06:02.528Z,6851
2022-12-28T12:07:45.640Z,6576
2022-12-28T12:08:44.233Z,6397
2022-12-28T12:09:44.236Z,6482
2022-12-28T12:10:44.307Z,6482
2022-12-28T12:11:44.245Z,6117
2022-12-28T12:12:44.205Z,6051
2022-12-28T12:13:44.224Z,6036
2022-12-28T12:14:44.195Z,6089
2022-12-28T12:15:44.200Z,5704
2022-12-28T12:16:44.275Z,5378
2022-12-28T12:17:44.201Z,5148
2022-12-28T12:18:44.216Z,4843
2022-12-28T12:19:44.177Z,4604
2022-12-28T12:20:44.215Z,4604
2022-12-28T12:21:44.232Z,4313
2022-12-28T12:22:44.188Z,4226
2022-12-28T12:23:44.201Z,4206
2022-12-28T12:24:44.224Z,4259
2022-12-28T12:25:44.389Z,4283
2022-12-28T12:26:44.206Z,4285
2022-12-28T12:27:44.201Z,4302
2022-12-28T12:28:44.225Z,4254
2022-12-28T12:29:44.199Z,4230
2022-12-28T12:30:44.271Z,4230
2022-12-28T12:31:44.235Z,4185
2022-12-28T12:32:44.285Z,3999
2022-12-28T12:33:44.200Z,3964
2022-12-28T12:34:44.191Z,3848
2022-12-28T12:35:44.195Z,4196
2022-12-28T12:36:44.227Z,4233
2022-12-28T12:37:44.204Z,4117
2022-12-28T12:38:44.192Z,4198
2022-12-28T12:39:55.812Z,3760
2022-12-28T12:40:54.260Z,4001
2022-12-28T12:41:54.596Z,4053
2022-12-28T12:42:54.207Z,4027
2022-12-28T12:43:54.218Z,3994
2022-12-28T12:44:54.206Z,3966
2022-12-28T12:45:54.364Z,3990
2022-12-28T12:46:54.218Z,4001
2022-12-28T12:47:54.208Z,3881
2022-12-28T12:48:54.211Z,3961
2022-12-28T12:49:54.211Z,3837
2022-12-28T12:50:54.217Z,3673
2022-12-28T12:51:54.229Z,3559
2022-12-28T12:52:54.219Z,3509
2022-12-28T12:53:54.210Z,3409
2022-12-28T12:54:54.209Z,3319
2022-12-28T12:55:54.217Z,3210
2022-12-28T12:56:54.393Z,3015
2022-12-28T12:57:54.215Z,2755
2022-12-28T12:58:54.218Z,2563
2022-12-28T12:59:54.215Z,2420
2022-12-28T13:00:54.226Z,2381
2022-12-28T13:01:54.308Z,2370
2022-12-28T13:02:54.859Z,2370
2022-12-28T13:03:54.235Z,2305
2022-12-28T13:04:54.626Z,2221
2022-12-28T13:05:54.204Z,2127
2022-12-28T13:06:54.225Z,2134
2022-12-28T13:07:54.201Z,2086
2022-12-28T13:08:54.201Z,2082
2022-12-28T13:09:54.208Z,2023
2022-12-28T13:10:54.222Z,1883
2022-12-28T13:11:54.863Z,1793
2022-12-28T13:12:54.211Z,1719
2022-12-28T13:13:54.204Z,1658
2022-12-28T13:14:54.309Z,1620
2022-12-28T13:15:54.238Z,1610
2022-12-28T13:16:54.218Z,1612
2022-12-28T13:17:55.402Z,1585
2022-12-28T13:18:54.210Z,1502
2022-12-28T13:19:54.203Z,1507
2022-12-28T13:20:54.193Z,1485
2022-12-28T13:21:54.230Z,1435
2022-12-28T13:22:54.254Z,1393
2022-12-28T13:23:54.610Z,1375
2022-12-28T13:24:54.198Z,1375
2022-12-28T13:25:54.261Z,1386
2022-12-28T13:26:54.225Z,1434
2022-12-28T13:27:54.227Z,1563
2022-12-28T13:28:54.606Z,1642
2022-12-28T13:29:54.234Z,1690
2022-12-28T13:30:54.314Z,1690
2022-12-28T13:31:54.233Z,1706
2022-12-28T13:32:54.218Z,1671
2022-12-28T13:33:54.832Z,1647
2022-12-28T13:34:54.198Z,1627
2022-12-28T13:35:54.208Z,1649
2022-12-28T13:36:54.355Z,1669
2022-12-28T13:37:54.218Z,1697
2022-12-28T13:38:54.621Z,1745
2022-12-28T13:39:54.194Z,1800
2022-12-28T13:40:54.208Z,1800
2022-12-28T13:41:54.219Z,1846
2022-12-28T13:42:54.212Z,1898
2022-12-28T13:43:54.196Z,1942
2022-12-28T13:44:54.197Z,2003
2022-12-28T13:45:54.302Z,2014
2022-12-28T13:46:54.213Z,1994
2022-12-28T13:47:54.194Z,1939
2022-12-28T13:48:54.193Z,1933
2022-12-28T13:49:54.188Z,1974
2022-12-28T13:50:54.208Z,2009
2022-12-28T13:51:54.212Z,2049
2022-12-28T13:52:54.205Z,2097
2022-12-28T13:53:54.190Z,2143
2022-12-28T13:54:54.214Z,2184
2022-12-28T13:55:54.215Z,2189
2022-12-28T13:57:03.390Z,2174
2022-12-28T13:57:59.084Z,2154
2022-12-28T13:58:54.208Z,2149
2022-12-28T13:59:54.249Z,2114
2022-12-28T14:00:54.223Z,2088
2022-12-28T14:01:54.301Z,2119
2022-12-28T14:02:54.318Z,2119